sensor_id;sensor_type;location;lat;lon;timestamp;temperature;humidity
18779;DHT22;9518;51.720;14.384;2022-11-15T00:00:13;1.80;99.90
18779;DHT22;9518;51.720;14.384;2022-11-15T00:02:40;1.80;99.90
18779;DHT22;9518;51.720;14.384;2022-11-15T00:05:12;1.80;99.90
18779;DHT22;9518;51.720;14.384;2022-11-15T00:07:39;1.90;99.90
18779;DHT22;9518;51.720;14.384;2022-11-15T00:10:06;2.10;99.90
18779;DHT22;9518;51.720;14.384;2022-11-15T00:12:34;2.20;99.90
18779;DHT22;9518;51.720;14.384;2022-11-15T00:15:01;2.20;99.90
18779;DHT22;9518;51.720;14.384;2022-11-15T00:17:28;2.10;99.90
18779;DHT22;9518;51.720;14.384;2022-11-15T00:19:55;2.10;99.90
18779;DHT22;9518;51.720;14.384;2022-11-15T00:22:24;2.00;99.90
18779;DHT22;9518;51.720;14.384;2022-11-15T00:24:51;2.00;99.90
18779;DHT22;9518;51.720;14.384;2022-11-15T00:27:18;2.00;99.90
18779;DHT22;9518;51.720;14.384;2022-11-15T00:29:45;2.00;99.90
18779;DHT22;9518;51.720;14.384;2022-11-15T00:32:12;2.00;99.90
18779;DHT22;9518;51.720;14.384;2022-11-15T00:34:39;1.90;99.90
18779;DHT22;9518;51.720;14.384;2022-11-15T00:37:06;2.00;99.90
18779;DHT22;9518;51.720;14.384;2022-11-15T00:39:35;2.10;99.90
18779;DHT22;9518;51.720;14.384;2022-11-15T00:42:02;2.10;99.90
18779;DHT22;9518;51.720;14.384;2022-11-15T00:44:29;2.10;99.90
18779;DHT22;9518;51.720;14.384;2022-11-15T00:46:56;2.10;99.90
18779;DHT22;9518;51.720;14.384;2022-11-15T00:49:22;2.20;99.90
18779;DHT22;9518;51.720;14.384;2022-11-15T00:51:52;2.20;99.90
18779;DHT22;9518;51.720;14.384;2022-11-15T00:54:25;2.20;99.90
18779;DHT22;9518;51.720;14.384;2022-11-15T00:56:54;2.20;99.90
18779;DHT22;9518;51.720;14.384;2022-11-15T00:59:21;2.40;99.90
18779;DHT22;9518;51.720;14.384;2022-11-15T01:01:48;2.50;99.90
18779;DHT22;9518;51.720;14.384;2022-11-15T01:04:15;2.70;99.90
18779;DHT22;9518;51.720;14.384;2022-11-15T01:06:42;2.70;99.90
18779;DHT22;9518;51.720;14.384;2022-11-15T01:09:12;2.80;99.90
18779;DHT22;9518;51.720;14.384;2022-11-15T01:11:39;3.00;99.90
18779;DHT22;9518;51.720;14.384;2022-11-15T01:14:07;3.10;99.90
18779;DHT22;9518;51.720;14.384;2022-11-15T01:16:38;3.20;99.90
18779;DHT22;9518;51.720;14.384;2022-11-15T01:22:28;3.40;99.90
18779;DHT22;9518;51.720;14.384;2022-11-15T01:24:55;3.30;99.90
18779;DHT22;9518;51.720;14.384;2022-11-15T01:27:22;3.40;99.90
18779;DHT22;9518;51.720;14.384;2022-11-15T01:29:54;3.40;99.90
18779;DHT22;9518;51.720;14.384;2022-11-15T01:32:24;3.50;99.90
18779;DHT22;9518;51.720;14.384;2022-11-15T01:34:51;3.60;99.90
18779;DHT22;9518;51.720;14.384;2022-11-15T01:37:20;3.70;99.90
18779;DHT22;9518;51.720;14.384;2022-11-15T01:39:47;3.70;99.90
18779;DHT22;9518;51.720;14.384;2022-11-15T01:42:14;3.80;99.90
18779;DHT22;9518;51.720;14.384;2022-11-15T01:44:45;3.90;99.90
18779;DHT22;9518;51.720;14.384;2022-11-15T01:47:16;4.00;99.90
18779;DHT22;9518;51.720;14.384;2022-11-15T01:49:53;4.30;99.90
18779;DHT22;9518;51.720;14.384;2022-11-15T01:52:22;4.30;99.90
18779;DHT22;9518;51.720;14.384;2022-11-15T01:54:53;4.30;99.90
18779;DHT22;9518;51.720;14.384;2022-11-15T01:57:22;4.20;99.90
18779;DHT22;9518;51.720;14.384;2022-11-15T01:59:49;4.10;99.90
18779;DHT22;9518;51.720;14.384;2022-11-15T02:02:17;4.10;99.90
18779;DHT22;9518;51.720;14.384;2022-11-15T02:04:46;4.10;99.90
18779;DHT22;9518;51.720;14.384;2022-11-15T02:07:15;4.10;99.90
18779;DHT22;9518;51.720;14.384;2022-11-15T02:09:44;4.20;99.90
18779;DHT22;9518;51.720;14.384;2022-11-15T02:12:13;4.20;99.90
18779;DHT22;9518;51.720;14.384;2022-11-15T02:14:43;4.30;99.90
18779;DHT22;9518;51.720;14.384;2022-11-15T02:17:29;4.40;99.90
18779;DHT22;9518;51.720;14.384;2022-11-15T02:20:39;4.30;99.90
18779;DHT22;9518;51.720;14.384;2022-11-15T02:23:50;4.30;99.90
18779;DHT22;9518;51.720;14.384;2022-11-15T02:29:51;4.40;99.90
18779;DHT22;9518;51.720;14.384;2022-11-15T02:32:27;4.40;99.90
18779;DHT22;9518;51.720;14.384;2022-11-15T02:35:00;4.50;99.90
18779;DHT22;9518;51.720;14.384;2022-11-15T02:37:35;4.60;99.90
18779;DHT22;9518;51.720;14.384;2022-11-15T02:40:10;4.60;99.90
18779;DHT22;9518;51.720;14.384;2022-11-15T02:42:44;4.60;99.90
18779;DHT22;9518;51.720;14.384;2022-11-15T02:45:32;4.70;99.90
18779;DHT22;9518;51.720;14.384;2022-11-15T02:48:04;4.70;99.90
18779;DHT22;9518;51.720;14.384;2022-11-15T02:50:33;4.70;99.90
18779;DHT22;9518;51.720;14.384;2022-11-15T02:53:00;4.90;99.90
18779;DHT22;9518;51.720;14.384;2022-11-15T02:55:29;5.00;99.90
18779;DHT22;9518;51.720;14.384;2022-11-15T02:58:10;4.90;99.90
18779;DHT22;9518;51.720;14.384;2022-11-15T03:00:44;4.90;99.90
18779;DHT22;9518;51.720;14.384;2022-11-15T03:03:45;4.90;99.90
18779;DHT22;9518;51.720;14.384;2022-11-15T03:06:23;5.00;99.90
18779;DHT22;9518;51.720;14.384;2022-11-15T03:08:57;5.20;99.90
18779;DHT22;9518;51.720;14.384;2022-11-15T03:11:29;5.40;99.90
18779;DHT22;9518;51.720;14.384;2022-11-15T03:14:00;5.20;99.90
18779;DHT22;9518;51.720;14.384;2022-11-15T03:16:33;5.10;99.90
18779;DHT22;9518;51.720;14.384;2022-11-15T03:19:06;5.10;99.90
18779;DHT22;9518;51.720;14.384;2022-11-15T03:21:37;5.10;99.90
18779;DHT22;9518;51.720;14.384;2022-11-15T03:24:07;5.00;99.90
18779;DHT22;9518;51.720;14.384;2022-11-15T03:26:36;5.10;99.90
18779;DHT22;9518;51.720;14.384;2022-11-15T03:29:07;5.00;99.90
18779;DHT22;9518;51.720;14.384;2022-11-15T03:31:38;5.10;99.90
18779;DHT22;9518;51.720;14.384;2022-11-15T03:34:22;5.00;99.90
18779;DHT22;9518;51.720;14.384;2022-11-15T03:36:53;5.20;99.90
18779;DHT22;9518;51.720;14.384;2022-11-15T03:39:20;5.20;99.90
18779;DHT22;9518;51.720;14.384;2022-11-15T03:41:50;5.30;99.90
18779;DHT22;9518;51.720;14.384;2022-11-15T03:44:27;5.30;99.90
18779;DHT22;9518;51.720;14.384;2022-11-15T03:47:02;5.30;99.90
18779;DHT22;9518;51.720;14.384;2022-11-15T03:49:33;5.20;99.90
18779;DHT22;9518;51.720;14.384;2022-11-15T03:52:02;5.10;99.90
18779;DHT22;9518;51.720;14.384;2022-11-15T03:54:30;5.10;99.90
18779;DHT22;9518;51.720;14.384;2022-11-15T03:56:57;5.00;99.90
18779;DHT22;9518;51.720;14.384;2022-11-15T03:59:24;5.00;99.90
18779;DHT22;9518;51.720;14.384;2022-11-15T04:01:51;5.00;99.90
18779;DHT22;9518;51.720;14.384;2022-11-15T04:04:18;4.90;99.90
18779;DHT22;9518;51.720;14.384;2022-11-15T04:06:46;4.80;99.90
18779;DHT22;9518;51.720;14.384;2022-11-15T04:09:13;4.80;99.90
18779;DHT22;9518;51.720;14.384;2022-11-15T04:11:40;4.70;99.90
18779;DHT22;9518;51.720;14.384;2022-11-15T04:14:07;4.80;99.90
18779;DHT22;9518;51.720;14.384;2022-11-15T04:16:34;4.80;99.90
18779;DHT22;9518;51.720;14.384;2022-11-15T04:19:01;4.90;99.90
18779;DHT22;9518;51.720;14.384;2022-11-15T04:21:47;4.80;99.90
18779;DHT22;9518;51.720;14.384;2022-11-15T04:24:31;4.70;99.90
18779;DHT22;9518;51.720;14.384;2022-11-15T04:26:58;4.70;99.90
18779;DHT22;9518;51.720;14.384;2022-11-15T04:29:25;4.60;99.90
18779;DHT22;9518;51.720;14.384;2022-11-15T04:32:02;4.50;99.90
18779;DHT22;9518;51.720;14.384;2022-11-15T04:34:29;4.60;99.90
18779;DHT22;9518;51.720;14.384;2022-11-15T04:36:57;4.60;99.90
18779;DHT22;9518;51.720;14.384;2022-11-15T04:39:39;4.70;99.90
18779;DHT22;9518;51.720;14.384;2022-11-15T04:42:06;4.60;99.90
18779;DHT22;9518;51.720;14.384;2022-11-15T04:44:33;4.60;99.90
18779;DHT22;9518;51.720;14.384;2022-11-15T04:47:01;4.60;99.90
18779;DHT22;9518;51.720;14.384;2022-11-15T04:49:28;4.50;99.90
18779;DHT22;9518;51.720;14.384;2022-11-15T04:51:56;4.40;99.90
18779;DHT22;9518;51.720;14.384;2022-11-15T04:54:23;4.40;99.90
18779;DHT22;9518;51.720;14.384;2022-11-15T04:56:50;4.50;99.90
18779;DHT22;9518;51.720;14.384;2022-11-15T04:59:17;4.60;99.90
18779;DHT22;9518;51.720;14.384;2022-11-15T05:01:44;4.50;99.90
18779;DHT22;9518;51.720;14.384;2022-11-15T05:04:11;4.40;99.90
18779;DHT22;9518;51.720;14.384;2022-11-15T05:06:50;4.40;99.90
18779;DHT22;9518;51.720;14.384;2022-11-15T05:09:21;4.20;99.90
18779;DHT22;9518;51.720;14.384;2022-11-15T05:11:48;4.10;99.90
18779;DHT22;9518;51.720;14.384;2022-11-15T05:14:17;4.10;99.90
18779;DHT22;9518;51.720;14.384;2022-11-15T05:16:49;4.10;99.90
18779;DHT22;9518;51.720;14.384;2022-11-15T05:19:18;4.00;99.90
18779;DHT22;9518;51.720;14.384;2022-11-15T05:21:45;3.90;99.90
18779;DHT22;9518;51.720;14.384;2022-11-15T05:24:12;3.80;99.90
18779;DHT22;9518;51.720;14.384;2022-11-15T05:26:40;3.80;99.90
18779;DHT22;9518;51.720;14.384;2022-11-15T05:29:09;3.80;99.90
18779;DHT22;9518;51.720;14.384;2022-11-15T05:31:39;3.70;99.90
18779;DHT22;9518;51.720;14.384;2022-11-15T05:34:06;3.60;99.90
18779;DHT22;9518;51.720;14.384;2022-11-15T05:36:36;3.50;99.90
18779;DHT22;9518;51.720;14.384;2022-11-15T05:39:05;3.50;99.90
18779;DHT22;9518;51.720;14.384;2022-11-15T05:41:35;3.50;99.90
18779;DHT22;9518;51.720;14.384;2022-11-15T05:44:06;3.50;99.90
18779;DHT22;9518;51.720;14.384;2022-11-15T05:46:35;3.50;99.90
18779;DHT22;9518;51.720;14.384;2022-11-15T05:49:05;3.40;99.90
18779;DHT22;9518;51.720;14.384;2022-11-15T05:51:33;3.30;99.90
18779;DHT22;9518;51.720;14.384;2022-11-15T05:54:01;3.30;99.90
18779;DHT22;9518;51.720;14.384;2022-11-15T05:56:28;3.20;99.90
18779;DHT22;9518;51.720;14.384;2022-11-15T05:58:59;3.20;99.90
18779;DHT22;9518;51.720;14.384;2022-11-15T06:01:27;3.10;99.90
18779;DHT22;9518;51.720;14.384;2022-11-15T06:03:54;3.00;99.90
18779;DHT22;9518;51.720;14.384;2022-11-15T06:06:21;3.00;99.90
18779;DHT22;9518;51.720;14.384;2022-11-15T06:08:48;3.00;99.90
18779;DHT22;9518;51.720;14.384;2022-11-15T06:11:15;3.00;99.90
18779;DHT22;9518;51.720;14.384;2022-11-15T06:13:42;3.00;99.90
18779;DHT22;9518;51.720;14.384;2022-11-15T06:16:09;2.90;99.90
18779;DHT22;9518;51.720;14.384;2022-11-15T06:18:38;2.90;99.90
18779;DHT22;9518;51.720;14.384;2022-11-15T06:21:05;3.00;99.90
18779;DHT22;9518;51.720;14.384;2022-11-15T06:23:33;3.00;99.90
18779;DHT22;9518;51.720;14.384;2022-11-15T06:26:04;3.00;99.90
18779;DHT22;9518;51.720;14.384;2022-11-15T06:28:32;3.00;99.90
18779;DHT22;9518;51.720;14.384;2022-11-15T06:31:02;3.00;99.90
18779;DHT22;9518;51.720;14.384;2022-11-15T06:33:30;3.00;99.90
18779;DHT22;9518;51.720;14.384;2022-11-15T06:36:01;3.00;99.90
18779;DHT22;9518;51.720;14.384;2022-11-15T06:38:28;3.00;99.90
18779;DHT22;9518;51.720;14.384;2022-11-15T06:40:55;2.90;99.90
18779;DHT22;9518;51.720;14.384;2022-11-15T06:43:27;2.90;99.90
18779;DHT22;9518;51.720;14.384;2022-11-15T06:45:54;3.00;99.90
18779;DHT22;9518;51.720;14.384;2022-11-15T06:48:21;3.00;99.90
18779;DHT22;9518;51.720;14.384;2022-11-15T06:50:50;2.90;99.90
18779;DHT22;9518;51.720;14.384;2022-11-15T06:53:19;2.90;99.90
18779;DHT22;9518;51.720;14.384;2022-11-15T06:55:46;2.80;99.90
18779;DHT22;9518;51.720;14.384;2022-11-15T06:58:13;2.80;99.90
18779;DHT22;9518;51.720;14.384;2022-11-15T07:00:40;2.90;99.90
18779;DHT22;9518;51.720;14.384;2022-11-15T07:03:08;2.90;99.90
18779;DHT22;9518;51.720;14.384;2022-11-15T07:05:35;3.00;99.90
18779;DHT22;9518;51.720;14.384;2022-11-15T07:08:03;3.10;99.90
18779;DHT22;9518;51.720;14.384;2022-11-15T07:10:31;3.20;99.90
18779;DHT22;9518;51.720;14.384;2022-11-15T07:12:58;3.30;99.90
18779;DHT22;9518;51.720;14.384;2022-11-15T07:15:26;3.30;99.90
18779;DHT22;9518;51.720;14.384;2022-11-15T07:17:53;3.40;99.90
18779;DHT22;9518;51.720;14.384;2022-11-15T07:20:20;3.40;99.90
18779;DHT22;9518;51.720;14.384;2022-11-15T07:22:47;3.50;99.90
18779;DHT22;9518;51.720;14.384;2022-11-15T07:25:14;3.70;99.90
18779;DHT22;9518;51.720;14.384;2022-11-15T07:27:42;3.80;99.90
18779;DHT22;9518;51.720;14.384;2022-11-15T07:30:10;3.90;99.90
18779;DHT22;9518;51.720;14.384;2022-11-15T07:32:37;4.10;99.90
18779;DHT22;9518;51.720;14.384;2022-11-15T07:35:05;4.20;99.90
18779;DHT22;9518;51.720;14.384;2022-11-15T07:37:32;4.20;99.90
18779;DHT22;9518;51.720;14.384;2022-11-15T07:39:59;4.30;99.90
18779;DHT22;9518;51.720;14.384;2022-11-15T07:42:26;4.40;99.90
18779;DHT22;9518;51.720;14.384;2022-11-15T07:45:11;4.60;99.90
18779;DHT22;9518;51.720;14.384;2022-11-15T07:47:38;4.80;99.90
18779;DHT22;9518;51.720;14.384;2022-11-15T07:50:06;5.00;99.90
18779;DHT22;9518;51.720;14.384;2022-11-15T07:52:33;5.30;99.90
18779;DHT22;9518;51.720;14.384;2022-11-15T07:55:00;5.40;99.90
18779;DHT22;9518;51.720;14.384;2022-11-15T07:57:29;5.50;99.90
18779;DHT22;9518;51.720;14.384;2022-11-15T07:59:56;5.60;99.90
18779;DHT22;9518;51.720;14.384;2022-11-15T08:02:24;5.60;99.90
18779;DHT22;9518;51.720;14.384;2022-11-15T08:04:51;5.70;99.90
18779;DHT22;9518;51.720;14.384;2022-11-15T08:07:18;5.80;99.90
18779;DHT22;9518;51.720;14.384;2022-11-15T08:09:45;5.90;99.90
18779;DHT22;9518;51.720;14.384;2022-11-15T08:12:12;6.00;99.90
18779;DHT22;9518;51.720;14.384;2022-11-15T08:14:40;6.10;99.90
18779;DHT22;9518;51.720;14.384;2022-11-15T08:17:07;6.30;99.90
18779;DHT22;9518;51.720;14.384;2022-11-15T08:19:36;6.60;99.90
18779;DHT22;9518;51.720;14.384;2022-11-15T08:22:03;6.70;99.90
18779;DHT22;9518;51.720;14.384;2022-11-15T08:24:30;6.80;99.90
18779;DHT22;9518;51.720;14.384;2022-11-15T08:26:57;7.00;99.90
18779;DHT22;9518;51.720;14.384;2022-11-15T08:29:24;7.20;99.90
18779;DHT22;9518;51.720;14.384;2022-11-15T08:31:53;7.30;99.90
18779;DHT22;9518;51.720;14.384;2022-11-15T08:34:21;7.50;99.90
18779;DHT22;9518;51.720;14.384;2022-11-15T08:36:49;7.60;99.90
18779;DHT22;9518;51.720;14.384;2022-11-15T08:39:16;7.80;99.90
18779;DHT22;9518;51.720;14.384;2022-11-15T08:41:43;7.90;99.90
18779;DHT22;9518;51.720;14.384;2022-11-15T08:44:11;8.00;99.90
18779;DHT22;9518;51.720;14.384;2022-11-15T08:46:38;8.20;99.90
18779;DHT22;9518;51.720;14.384;2022-11-15T08:49:05;8.30;99.90
18779;DHT22;9518;51.720;14.384;2022-11-15T08:51:32;8.40;99.90
18779;DHT22;9518;51.720;14.384;2022-11-15T08:54:00;8.50;99.90
18779;DHT22;9518;51.720;14.384;2022-11-15T08:56:27;8.70;99.90
18779;DHT22;9518;51.720;14.384;2022-11-15T08:58:54;8.80;99.90
18779;DHT22;9518;51.720;14.384;2022-11-15T09:01:21;8.90;99.90
18779;DHT22;9518;51.720;14.384;2022-11-15T09:03:48;9.00;99.90
18779;DHT22;9518;51.720;14.384;2022-11-15T09:06:15;9.00;99.90
18779;DHT22;9518;51.720;14.384;2022-11-15T09:08:42;9.10;99.90
18779;DHT22;9518;51.720;14.384;2022-11-15T09:11:11;9.20;99.90
18779;DHT22;9518;51.720;14.384;2022-11-15T09:13:38;9.30;99.90
18779;DHT22;9518;51.720;14.384;2022-11-15T09:16:06;9.50;99.90
18779;DHT22;9518;51.720;14.384;2022-11-15T09:18:33;9.60;99.90
18779;DHT22;9518;51.720;14.384;2022-11-15T09:21:00;9.70;99.90
18779;DHT22;9518;51.720;14.384;2022-11-15T09:23:28;9.80;99.90
18779;DHT22;9518;51.720;14.384;2022-11-15T09:25:59;9.90;99.90
18779;DHT22;9518;51.720;14.384;2022-11-15T09:28:28;10.00;99.90
18779;DHT22;9518;51.720;14.384;2022-11-15T09:30:57;10.10;99.90
18779;DHT22;9518;51.720;14.384;2022-11-15T09:33:25;10.20;99.90
18779;DHT22;9518;51.720;14.384;2022-11-15T09:35:52;10.30;99.90
18779;DHT22;9518;51.720;14.384;2022-11-15T09:38:20;10.40;99.90
18779;DHT22;9518;51.720;14.384;2022-11-15T09:40:51;10.50;99.90
18779;DHT22;9518;51.720;14.384;2022-11-15T09:43:35;10.50;99.90
18779;DHT22;9518;51.720;14.384;2022-11-15T09:46:13;10.70;99.90
18779;DHT22;9518;51.720;14.384;2022-11-15T09:48:50;10.80;99.90
18779;DHT22;9518;51.720;14.384;2022-11-15T09:51:30;11.00;99.90
18779;DHT22;9518;51.720;14.384;2022-11-15T09:54:08;11.20;99.90
18779;DHT22;9518;51.720;14.384;2022-11-15T09:56:39;11.40;99.90
18779;DHT22;9518;51.720;14.384;2022-11-15T09:59:25;11.60;99.90
18779;DHT22;9518;51.720;14.384;2022-11-15T10:02:01;11.70;99.90
18779;DHT22;9518;51.720;14.384;2022-11-15T10:04:29;11.90;99.90
18779;DHT22;9518;51.720;14.384;2022-11-15T10:07:01;12.10;99.90
18779;DHT22;9518;51.720;14.384;2022-11-15T10:09:38;12.10;99.90
18779;DHT22;9518;51.720;14.384;2022-11-15T10:12:09;12.30;99.90
18779;DHT22;9518;51.720;14.384;2022-11-15T10:14:37;12.60;99.90
18779;DHT22;9518;51.720;14.384;2022-11-15T10:17:36;12.70;99.90
18779;DHT22;9518;51.720;14.384;2022-11-15T10:20:15;12.70;82.80
18779;DHT22;9518;51.720;14.384;2022-11-15T10:22:46;12.50;47.00
18779;DHT22;9518;51.720;14.384;2022-11-15T10:25:18;12.40;71.90
18779;DHT22;9518;51.720;14.384;2022-11-15T10:27:50;12.20;66.20
18779;DHT22;9518;51.720;14.384;2022-11-15T10:30:21;12.00;99.90
18779;DHT22;9518;51.720;14.384;2022-11-15T10:32:48;11.90;99.90
18779;DHT22;9518;51.720;14.384;2022-11-15T10:35:19;11.90;99.90
18779;DHT22;9518;51.720;14.384;2022-11-15T10:37:46;11.90;99.90
18779;DHT22;9518;51.720;14.384;2022-11-15T10:40:20;11.80;99.90
18779;DHT22;9518;51.720;14.384;2022-11-15T10:42:47;11.90;99.90
18779;DHT22;9518;51.720;14.384;2022-11-15T10:45:27;11.90;99.90
18779;DHT22;9518;51.720;14.384;2022-11-15T10:48:22;11.90;99.90
18779;DHT22;9518;51.720;14.384;2022-11-15T10:50:51;11.90;99.90
18779;DHT22;9518;51.720;14.384;2022-11-15T10:53:26;12.00;99.90
18779;DHT22;9518;51.720;14.384;2022-11-15T10:55:59;12.00;99.90
18779;DHT22;9518;51.720;14.384;2022-11-15T10:58:33;12.10;99.90
18779;DHT22;9518;51.720;14.384;2022-11-15T11:01:19;12.10;99.90
18779;DHT22;9518;51.720;14.384;2022-11-15T11:04:00;12.20;99.90
18779;DHT22;9518;51.720;14.384;2022-11-15T11:06:28;12.20;99.90
18779;DHT22;9518;51.720;14.384;2022-11-15T11:08:57;12.20;99.90
18779;DHT22;9518;51.720;14.384;2022-11-15T11:11:25;12.20;99.90
18779;DHT22;9518;51.720;14.384;2022-11-15T11:13:52;12.30;99.90
18779;DHT22;9518;51.720;14.384;2022-11-15T11:16:34;12.40;26.90
18779;DHT22;9518;51.720;14.384;2022-11-15T11:19:13;12.30;27.00
18779;DHT22;9518;51.720;14.384;2022-11-15T11:21:49;12.40;1.00
18779;DHT22;9518;51.720;14.384;2022-11-15T11:24:23;12.40;1.00
18779;DHT22;9518;51.720;14.384;2022-11-15T11:27:03;12.50;1.00
18779;DHT22;9518;51.720;14.384;2022-11-15T11:29:44;12.60;1.00
18779;DHT22;9518;51.720;14.384;2022-11-15T11:32:27;12.70;1.00
18779;DHT22;9518;51.720;14.384;2022-11-15T11:35:03;12.60;99.90
18779;DHT22;9518;51.720;14.384;2022-11-15T11:37:37;12.60;99.90
18779;DHT22;9518;51.720;14.384;2022-11-15T11:40:16;12.70;99.90
18779;DHT22;9518;51.720;14.384;2022-11-15T11:42:52;12.80;1.00
18779;DHT22;9518;51.720;14.384;2022-11-15T11:45:44;12.90;1.00
18779;DHT22;9518;51.720;14.384;2022-11-15T11:48:23;12.90;1.00
18779;DHT22;9518;51.720;14.384;2022-11-15T11:51:03;13.00;1.00
18779;DHT22;9518;51.720;14.384;2022-11-15T11:53:39;13.00;99.90
18779;DHT22;9518;51.720;14.384;2022-11-15T11:56:20;13.10;1.00
18779;DHT22;9518;51.720;14.384;2022-11-15T11:58:51;13.10;1.00
18779;DHT22;9518;51.720;14.384;2022-11-15T12:01:23;13.10;99.90
18779;DHT22;9518;51.720;14.384;2022-11-15T12:03:57;13.10;1.00
18779;DHT22;9518;51.720;14.384;2022-11-15T12:06:31;13.10;99.90
18779;DHT22;9518;51.720;14.384;2022-11-15T12:09:02;13.10;99.90
18779;DHT22;9518;51.720;14.384;2022-11-15T12:11:38;13.10;99.90
18779;DHT22;9518;51.720;14.384;2022-11-15T12:14:16;13.20;1.00
18779;DHT22;9518;51.720;14.384;2022-11-15T12:16:45;13.10;99.90
18779;DHT22;9518;51.720;14.384;2022-11-15T12:19:13;13.10;99.90
18779;DHT22;9518;51.720;14.384;2022-11-15T12:21:45;13.20;1.00
18779;DHT22;9518;51.720;14.384;2022-11-15T12:24:18;13.20;99.90
18779;DHT22;9518;51.720;14.384;2022-11-15T12:26:50;13.20;1.00
18779;DHT22;9518;51.720;14.384;2022-11-15T12:29:31;13.20;1.00
18779;DHT22;9518;51.720;14.384;2022-11-15T12:32:19;13.10;1.00
18779;DHT22;9518;51.720;14.384;2022-11-15T12:34:52;13.00;99.90
18779;DHT22;9518;51.720;14.384;2022-11-15T12:40:31;12.90;1.00
18779;DHT22;9518;51.720;14.384;2022-11-15T12:45:51;12.90;1.00
18779;DHT22;9518;51.720;14.384;2022-11-15T12:48:49;12.80;1.00
18779;DHT22;9518;51.720;14.384;2022-11-15T12:52:03;12.80;1.00
18779;DHT22;9518;51.720;14.384;2022-11-15T12:54:52;12.80;99.90
18779;DHT22;9518;51.720;14.384;2022-11-15T12:57:32;12.80;1.00
18779;DHT22;9518;51.720;14.384;2022-11-15T13:00:04;12.80;1.00
18779;DHT22;9518;51.720;14.384;2022-11-15T13:02:34;12.70;1.00
18779;DHT22;9518;51.720;14.384;2022-11-15T13:08:44;12.70;1.00
18779;DHT22;9518;51.720;14.384;2022-11-15T13:14:40;12.60;40.60
18779;DHT22;9518;51.720;14.384;2022-11-15T13:17:31;12.60;1.00
18779;DHT22;9518;51.720;14.384;2022-11-15T13:20:21;12.60;99.90
18779;DHT22;9518;51.720;14.384;2022-11-15T13:22:50;12.60;1.00
18779;DHT22;9518;51.720;14.384;2022-11-15T13:25:22;12.70;1.00
18779;DHT22;9518;51.720;14.384;2022-11-15T13:27:51;12.70;1.00
18779;DHT22;9518;51.720;14.384;2022-11-15T13:30:22;12.60;1.00
18779;DHT22;9518;51.720;14.384;2022-11-15T13:32:50;12.50;1.00
18779;DHT22;9518;51.720;14.384;2022-11-15T13:35:20;12.40;1.00
18779;DHT22;9518;51.720;14.384;2022-11-15T13:37:48;12.30;99.90
18779;DHT22;9518;51.720;14.384;2022-11-15T13:40:22;12.20;1.00
18779;DHT22;9518;51.720;14.384;2022-11-15T13:42:49;12.20;1.00
18779;DHT22;9518;51.720;14.384;2022-11-15T13:45:18;12.10;1.00
18779;DHT22;9518;51.720;14.384;2022-11-15T13:47:49;12.10;1.00
18779;DHT22;9518;51.720;14.384;2022-11-15T13:50:17;12.00;99.90
18779;DHT22;9518;51.720;14.384;2022-11-15T13:52:47;12.00;99.90
18779;DHT22;9518;51.720;14.384;2022-11-15T13:55:23;11.90;99.90
18779;DHT22;9518;51.720;14.384;2022-11-15T13:57:55;11.90;1.00
18779;DHT22;9518;51.720;14.384;2022-11-15T14:00:34;11.90;1.00
18779;DHT22;9518;51.720;14.384;2022-11-15T14:03:16;11.80;1.00
18779;DHT22;9518;51.720;14.384;2022-11-15T14:05:46;11.80;1.00
18779;DHT22;9518;51.720;14.384;2022-11-15T14:08:28;11.80;1.00
18779;DHT22;9518;51.720;14.384;2022-11-15T14:11:13;11.60;1.00
18779;DHT22;9518;51.720;14.384;2022-11-15T14:13:42;11.60;1.00
18779;DHT22;9518;51.720;14.384;2022-11-15T14:16:33;11.50;1.00
18779;DHT22;9518;51.720;14.384;2022-11-15T14:19:00;11.40;6.50
18779;DHT22;9518;51.720;14.384;2022-11-15T14:21:28;11.30;31.20
18779;DHT22;9518;51.720;14.384;2022-11-15T14:24:16;11.30;73.90
18779;DHT22;9518;51.720;14.384;2022-11-15T14:26:45;11.20;99.90
18779;DHT22;9518;51.720;14.384;2022-11-15T14:29:25;11.10;99.90
18779;DHT22;9518;51.720;14.384;2022-11-15T14:31:53;11.00;99.90
18779;DHT22;9518;51.720;14.384;2022-11-15T14:34:20;10.90;99.90
18779;DHT22;9518;51.720;14.384;2022-11-15T14:36:48;10.80;99.90
18779;DHT22;9518;51.720;14.384;2022-11-15T14:39:15;10.70;99.90
18779;DHT22;9518;51.720;14.384;2022-11-15T14:41:45;10.70;99.90
18779;DHT22;9518;51.720;14.384;2022-11-15T14:44:15;10.60;99.90
18779;DHT22;9518;51.720;14.384;2022-11-15T14:46:44;10.60;99.90
18779;DHT22;9518;51.720;14.384;2022-11-15T14:49:11;10.40;99.90
18779;DHT22;9518;51.720;14.384;2022-11-15T14:51:38;10.30;99.90
18779;DHT22;9518;51.720;14.384;2022-11-15T14:54:07;10.20;99.90
18779;DHT22;9518;51.720;14.384;2022-11-15T14:56:34;10.00;99.90
18779;DHT22;9518;51.720;14.384;2022-11-15T14:59:03;9.80;99.90
18779;DHT22;9518;51.720;14.384;2022-11-15T15:01:30;9.70;99.90
18779;DHT22;9518;51.720;14.384;2022-11-15T15:03:57;9.50;99.90
18779;DHT22;9518;51.720;14.384;2022-11-15T15:06:25;9.40;99.90
18779;DHT22;9518;51.720;14.384;2022-11-15T15:08:52;9.20;99.90
18779;DHT22;9518;51.720;14.384;2022-11-15T15:11:21;9.10;99.90
18779;DHT22;9518;51.720;14.384;2022-11-15T15:13:49;9.10;99.90
18779;DHT22;9518;51.720;14.384;2022-11-15T15:16:19;9.00;99.90
18779;DHT22;9518;51.720;14.384;2022-11-15T15:18:46;8.90;99.90
18779;DHT22;9518;51.720;14.384;2022-11-15T15:21:19;9.00;99.90
18779;DHT22;9518;51.720;14.384;2022-11-15T15:23:47;8.90;99.90
18779;DHT22;9518;51.720;14.384;2022-11-15T15:26:14;8.90;99.90
18779;DHT22;9518;51.720;14.384;2022-11-15T15:28:41;8.90;99.90
18779;DHT22;9518;51.720;14.384;2022-11-15T15:31:08;8.80;99.90
18779;DHT22;9518;51.720;14.384;2022-11-15T15:33:37;8.70;99.90
18779;DHT22;9518;51.720;14.384;2022-11-15T15:36:05;8.70;99.90
18779;DHT22;9518;51.720;14.384;2022-11-15T15:38:32;8.50;99.90
18779;DHT22;9518;51.720;14.384;2022-11-15T15:40:59;8.40;99.90
18779;DHT22;9518;51.720;14.384;2022-11-15T15:43:28;8.20;99.90
18779;DHT22;9518;51.720;14.384;2022-11-15T15:45:55;8.10;99.90
18779;DHT22;9518;51.720;14.384;2022-11-15T15:48:22;8.00;99.90
18779;DHT22;9518;51.720;14.384;2022-11-15T15:50:51;7.90;99.90
18779;DHT22;9518;51.720;14.384;2022-11-15T15:53:18;7.80;99.90
18779;DHT22;9518;51.720;14.384;2022-11-15T15:55:45;7.70;99.90
18779;DHT22;9518;51.720;14.384;2022-11-15T15:58:12;7.60;99.90
18779;DHT22;9518;51.720;14.384;2022-11-15T16:00:39;7.50;99.90
18779;DHT22;9518;51.720;14.384;2022-11-15T16:03:06;7.40;99.90
18779;DHT22;9518;51.720;14.384;2022-11-15T16:05:33;7.40;99.90
18779;DHT22;9518;51.720;14.384;2022-11-15T16:08:02;7.30;99.90
18779;DHT22;9518;51.720;14.384;2022-11-15T16:10:31;7.30;99.90
18779;DHT22;9518;51.720;14.384;2022-11-15T16:12:59;7.30;99.90
18779;DHT22;9518;51.720;14.384;2022-11-15T16:15:28;7.40;99.90
18779;DHT22;9518;51.720;14.384;2022-11-15T16:17:57;7.40;99.90
18779;DHT22;9518;51.720;14.384;2022-11-15T16:20:31;7.30;99.90
18779;DHT22;9518;51.720;14.384;2022-11-15T16:22:58;7.20;99.90
18779;DHT22;9518;51.720;14.384;2022-11-15T16:25:27;7.00;99.90